Dodson, Louisiana
Current Conditions -  °F | °C
As of 3:35 AM on Thursday 27 Nov 2014 (Local Time) from KRSN Reporting Station
Clear Clear  
Wind Chill: 38°   Ceiling: Unl
Heat Index: 43°   Visibility: 10mi
Dew Point: 33°   Wind: 8mph
Humidity: 69%   Direction: 340°NNW
Pressure: 30.42"   Gusts: NA
Location:  32.08°N, 92.66°W
Report Text: KRSN 270935Z AUTO 34007KT 10SM CLR 06/01 A3042 RMK AO2 T00590007
Loading
Personal Weather Stations






























Interactive Weather Map New forecast layout! Learn more

10-Day Weather Forecast

Advertisements
Track Severe Weather on mobile